LFT03 NZTG-NZWN
Flight info
| Callsign | LFT03 |
|---|---|
| Flight time | 0h 59m |
| Altitude | 24000 |
| Route | GOBUK H310 RO Y640 CHUTE Y780 TARUA H364 PM V242 DOGAD |
| Aircraft | BE20/L-SBGRY/S |
Departure
| Time | 2026-05-04 07:49 |
|---|---|
| Airport | Tauranga Airport (NZTG) |
Arrival
| Time | 2026-05-04 08:48 |
|---|---|
| Airport | Wellington International Airport (NZWN) |
| Time | Latitude | Longitude | Altitude | Speed | Heading |
|---|---|---|---|---|---|
| 2026-05-04 07:39 | -37.67172 | 176.19871 | 18 ft | 0 kts | 273° |
| 2026-05-04 07:44 | -37.67175 | 176.19817 | 18 ft | 8 kts | 261° |
| 2026-05-04 07:44 | -37.67235 | 176.19760 | 18 ft | 12 kts | 184° |
| 2026-05-04 07:45 | -37.67289 | 176.19750 | 18 ft | 13 kts | 209° |
| 2026-05-04 07:45 | -37.67313 | 176.19626 | 18 ft | 20 kts | 269° |
| 2026-05-04 07:45 | -37.67307 | 176.19439 | 18 ft | 24 kts | 274° |
| 2026-05-04 07:45 | -37.67296 | 176.19213 | 18 ft | 26 kts | 272° |
| 2026-05-04 07:46 | -37.67283 | 176.18977 | 18 ft | 25 kts | 274° |
| 2026-05-04 07:46 | -37.67281 | 176.18910 | 18 ft | 6 kts | 91° |
| 2026-05-04 07:46 | -37.67281 | 176.18913 | 18 ft | 0 kts | 92° |
| 2026-05-04 07:47 | -37.67285 | 176.18988 | 18 ft | 35 kts | 92° |
| 2026-05-04 07:47 | -37.67318 | 176.19676 | 18 ft | 116 kts | 92° |
| 2026-05-04 07:47 | -37.67380 | 176.20824 | 334 ft | 137 kts | 92° |
| 2026-05-04 07:49 | -37.68889 | 176.29438 | 4110 ft | 161 kts | 169° |
| 2026-05-04 07:49 | -37.70007 | 176.29498 | 4660 ft | 161 kts | 180° |
| 2026-05-04 07:49 | -37.71132 | 176.29432 | 5199 ft | 162 kts | 181° |
| 2026-05-04 07:50 | -37.72246 | 176.29334 | 5735 ft | 163 kts | 182° |
| 2026-05-04 07:50 | -37.73383 | 176.29212 | 6262 ft | 164 kts | 183° |
| 2026-05-04 07:50 | -37.74530 | 176.29079 | 6786 ft | 166 kts | 183° |
| 2026-05-04 07:50 | -37.75682 | 176.28943 | 7302 ft | 167 kts | 183° |
| 2026-05-04 07:51 | -37.76845 | 176.28805 | 7817 ft | 168 kts | 183° |
| 2026-05-04 07:51 | -37.78012 | 176.28668 | 8323 ft | 170 kts | 183° |
| 2026-05-04 07:51 | -37.79198 | 176.28530 | 8834 ft | 171 kts | 182° |
| 2026-05-04 07:51 | -37.80389 | 176.28411 | 9339 ft | 172 kts | 182° |
| 2026-05-04 07:52 | -37.81591 | 176.28298 | 9832 ft | 174 kts | 182° |
| 2026-05-04 07:52 | -37.82805 | 176.28184 | 10320 ft | 176 kts | 182° |
| 2026-05-04 07:52 | -37.84052 | 176.28066 | 10730 ft | 182 kts | 182° |
| 2026-05-04 07:52 | -37.85303 | 176.27948 | 11196 ft | 183 kts | 182° |
| 2026-05-04 07:53 | -37.86584 | 176.27828 | 11674 ft | 185 kts | 182° |
| 2026-05-04 07:54 | -37.95790 | 176.26950 | 14834 ft | 193 kts | 182° |
| 2026-05-04 07:55 | -37.97151 | 176.26837 | 15187 ft | 199 kts | 181° |
| 2026-05-04 07:55 | -37.98536 | 176.26761 | 15614 ft | 199 kts | 180° |
| 2026-05-04 07:55 | -37.99921 | 176.26693 | 16025 ft | 200 kts | 180° |
| 2026-05-04 07:55 | -38.01297 | 176.26627 | 16421 ft | 201 kts | 180° |
| 2026-05-04 07:56 | -38.02699 | 176.26561 | 16816 ft | 202 kts | 180° |
| 2026-05-04 07:56 | -38.04125 | 176.26494 | 17218 ft | 203 kts | 180° |
| 2026-05-04 07:56 | -38.05524 | 176.26427 | 17602 ft | 204 kts | 180° |
| 2026-05-04 07:56 | -38.06946 | 176.26359 | 17984 ft | 205 kts | 180° |
| 2026-05-04 07:57 | -38.08371 | 176.26291 | 18374 ft | 205 kts | 180° |
| 2026-05-04 07:57 | -38.09781 | 176.26224 | 18845 ft | 200 kts | 180° |
| 2026-05-04 07:57 | -38.11158 | 176.26158 | 19332 ft | 196 kts | 180° |
| 2026-05-04 07:57 | -38.12502 | 176.26094 | 19823 ft | 191 kts | 180° |
| 2026-05-04 07:58 | -38.13817 | 176.26030 | 20311 ft | 187 kts | 180° |
| 2026-05-04 07:58 | -38.15141 | 176.25964 | 20804 ft | 195 kts | 180° |
| 2026-05-04 07:58 | -38.16539 | 176.25899 | 21119 ft | 208 kts | 180° |
| 2026-05-04 07:58 | -38.18002 | 176.25834 | 21577 ft | 211 kts | 180° |
| 2026-05-04 07:59 | -38.19470 | 176.25770 | 22066 ft | 212 kts | 180° |
| 2026-05-04 07:59 | -38.20936 | 176.25708 | 22536 ft | 213 kts | 180° |
| 2026-05-04 07:59 | -38.22428 | 176.25660 | 22996 ft | 215 kts | 180° |
| 2026-05-04 07:59 | -38.23936 | 176.25626 | 23440 ft | 217 kts | 180° |
| 2026-05-04 08:00 | -38.25455 | 176.25607 | 23888 ft | 218 kts | 179° |
| 2026-05-04 08:00 | -38.26980 | 176.25606 | 24329 ft | 220 kts | 179° |
| 2026-05-04 08:00 | -38.28561 | 176.25612 | 24509 ft | 234 kts | 179° |
| 2026-05-04 08:02 | -38.42031 | 176.25863 | 24613 ft | 304 kts | 177° |
| 2026-05-04 08:02 | -38.44158 | 176.25972 | 24613 ft | 307 kts | 177° |
| 2026-05-04 08:02 | -38.46304 | 176.26084 | 24613 ft | 310 kts | 177° |
| 2026-05-04 08:03 | -38.48463 | 176.26198 | 24612 ft | 312 kts | 177° |
| 2026-05-04 08:03 | -38.50642 | 176.26314 | 24612 ft | 313 kts | 177° |
| 2026-05-04 08:03 | -38.52825 | 176.26429 | 24612 ft | 315 kts | 177° |
| 2026-05-04 08:03 | -38.55016 | 176.26544 | 24608 ft | 316 kts | 177° |
| 2026-05-04 08:04 | -38.57217 | 176.26660 | 24609 ft | 316 kts | 177° |
| 2026-05-04 08:04 | -38.59420 | 176.26775 | 24611 ft | 317 kts | 177° |
| 2026-05-04 08:04 | -38.61625 | 176.26890 | 24611 ft | 317 kts | 177° |
| 2026-05-04 08:04 | -38.63832 | 176.27004 | 24610 ft | 318 kts | 177° |
| 2026-05-04 08:05 | -38.66042 | 176.27118 | 24609 ft | 318 kts | 177° |
| 2026-05-04 08:05 | -38.68252 | 176.27231 | 24610 ft | 318 kts | 177° |
| 2026-05-04 08:05 | -38.70435 | 176.27342 | 24611 ft | 318 kts | 177° |
| 2026-05-04 08:05 | -38.72650 | 176.27455 | 24611 ft | 318 kts | 177° |
| 2026-05-04 08:06 | -38.74861 | 176.27585 | 24612 ft | 318 kts | 175° |
| 2026-05-04 08:06 | -38.77068 | 176.27774 | 24612 ft | 318 kts | 178° |
| 2026-05-04 08:06 | -38.79281 | 176.27704 | 24611 ft | 319 kts | 183° |
| 2026-05-04 08:06 | -38.81490 | 176.27478 | 24609 ft | 319 kts | 185° |
| 2026-05-04 08:08 | -38.96882 | 176.24874 | 24611 ft | 318 kts | 188° |
| 2026-05-04 08:08 | -38.99077 | 176.24476 | 24611 ft | 318 kts | 188° |
| 2026-05-04 08:10 | -39.16599 | 176.21285 | 24610 ft | 318 kts | 188° |
| 2026-05-04 08:11 | -39.18793 | 176.20884 | 24609 ft | 318 kts | 188° |
| 2026-05-04 08:11 | -39.23181 | 176.20081 | 24611 ft | 318 kts | 188° |
| 2026-05-04 08:11 | -39.25373 | 176.19680 | 24611 ft | 318 kts | 188° |
| 2026-05-04 08:12 | -39.27561 | 176.19279 | 24611 ft | 318 kts | 188° |
| 2026-05-04 08:12 | -39.29751 | 176.18878 | 24611 ft | 317 kts | 188° |
| 2026-05-04 08:12 | -39.31939 | 176.18476 | 24611 ft | 317 kts | 188° |
| 2026-05-04 08:12 | -39.34122 | 176.18075 | 24611 ft | 317 kts | 188° |
| 2026-05-04 08:13 | -39.36310 | 176.17672 | 24611 ft | 317 kts | 188° |
| 2026-05-04 08:13 | -39.38501 | 176.17269 | 24611 ft | 317 kts | 188° |
| 2026-05-04 08:13 | -39.40683 | 176.16866 | 24611 ft | 317 kts | 188° |
| 2026-05-04 08:13 | -39.42842 | 176.16467 | 24611 ft | 317 kts | 188° |
| 2026-05-04 08:14 | -39.45018 | 176.16022 | 24607 ft | 317 kts | 192° |
| 2026-05-04 08:14 | -39.47133 | 176.15216 | 24608 ft | 317 kts | 200° |
| 2026-05-04 08:14 | -39.49161 | 176.14103 | 24611 ft | 317 kts | 205° |
| 2026-05-04 08:16 | -39.63112 | 176.05484 | 24612 ft | 317 kts | 204° |
| 2026-05-04 08:16 | -39.65111 | 176.04291 | 24612 ft | 317 kts | 204° |
| 2026-05-04 08:16 | -39.67120 | 176.03090 | 24612 ft | 316 kts | 204° |
| 2026-05-04 08:17 | -39.69095 | 176.01909 | 24612 ft | 316 kts | 204° |
| 2026-05-04 08:17 | -39.71095 | 176.00711 | 24612 ft | 316 kts | 204° |
| 2026-05-04 08:17 | -39.73093 | 175.99514 | 24612 ft | 316 kts | 204° |
| 2026-05-04 08:17 | -39.75091 | 175.98315 | 24612 ft | 316 kts | 204° |
| 2026-05-04 08:19 | -39.89068 | 175.89899 | 24612 ft | 316 kts | 205° |
| 2026-05-04 08:19 | -39.91067 | 175.88691 | 24610 ft | 316 kts | 205° |
| 2026-05-04 08:20 | -39.93062 | 175.87484 | 24611 ft | 316 kts | 205° |
| 2026-05-04 08:20 | -39.95056 | 175.86275 | 24612 ft | 316 kts | 205° |
| 2026-05-04 08:20 | -39.97047 | 175.85067 | 24613 ft | 316 kts | 205° |
| 2026-05-04 08:20 | -39.99044 | 175.83859 | 24613 ft | 316 kts | 205° |
| 2026-05-04 08:21 | -40.01041 | 175.82653 | 24613 ft | 316 kts | 205° |
| 2026-05-04 08:21 | -40.03039 | 175.81447 | 24613 ft | 316 kts | 205° |
| 2026-05-04 08:21 | -40.05036 | 175.80240 | 24613 ft | 316 kts | 205° |
| 2026-05-04 08:21 | -40.07033 | 175.79032 | 24613 ft | 316 kts | 205° |
| 2026-05-04 08:22 | -40.09028 | 175.77824 | 24613 ft | 316 kts | 205° |
| 2026-05-04 08:22 | -40.10994 | 175.76631 | 24613 ft | 316 kts | 205° |
| 2026-05-04 08:24 | -40.24937 | 175.68137 | 24611 ft | 315 kts | 205° |
| 2026-05-04 08:24 | -40.26923 | 175.66923 | 24611 ft | 315 kts | 205° |
| 2026-05-04 08:24 | -40.28912 | 175.65705 | 24611 ft | 315 kts | 205° |
| 2026-05-04 08:24 | -40.30896 | 175.64488 | 24611 ft | 315 kts | 205° |
| 2026-05-04 08:25 | -40.32895 | 175.63304 | 24611 ft | 315 kts | 204° |
| 2026-05-04 08:25 | -40.34904 | 175.62155 | 24611 ft | 315 kts | 203° |
| 2026-05-04 08:25 | -40.36920 | 175.61020 | 24611 ft | 315 kts | 203° |
| 2026-05-04 08:25 | -40.38936 | 175.59892 | 24610 ft | 315 kts | 203° |
| 2026-05-04 08:26 | -40.40946 | 175.58768 | 24610 ft | 315 kts | 203° |
| 2026-05-04 08:27 | -40.55023 | 175.50834 | 24605 ft | 314 kts | 203° |
| 2026-05-04 08:28 | -40.57028 | 175.49695 | 24605 ft | 314 kts | 203° |
| 2026-05-04 08:28 | -40.59033 | 175.48555 | 24604 ft | 314 kts | 203° |
| 2026-05-04 08:28 | -40.60357 | 175.47805 | 24603 ft | 314 kts | 203° |
| 2026-05-04 08:28 | -40.62363 | 175.46670 | 24602 ft | 313 kts | 203° |
| 2026-05-04 08:29 | -40.64366 | 175.45538 | 24601 ft | 313 kts | 203° |
| 2026-05-04 08:29 | -40.67020 | 175.44035 | 24580 ft | 314 kts | 203° |
| 2026-05-04 08:29 | -40.68381 | 175.43263 | 24453 ft | 318 kts | 203° |
| 2026-05-04 08:31 | -40.82454 | 175.35257 | 20447 ft | 293 kts | 204° |
| 2026-05-04 08:33 | -40.94947 | 175.28118 | 17022 ft | 266 kts | 204° |
| 2026-05-04 08:33 | -40.96639 | 175.27148 | 16571 ft | 263 kts | 204° |
| 2026-05-04 08:35 | -41.08264 | 175.19981 | 13337 ft | 256 kts | 211° |
| 2026-05-04 08:35 | -41.09788 | 175.18778 | 12836 ft | 253 kts | 212° |
| 2026-05-04 08:35 | -41.11289 | 175.17578 | 12351 ft | 250 kts | 212° |
| 2026-05-04 08:35 | -41.12767 | 175.16392 | 11899 ft | 246 kts | 212° |
| 2026-05-04 08:37 | -41.21361 | 175.09530 | 9409 ft | 239 kts | 212° |
| 2026-05-04 08:37 | -41.22781 | 175.08391 | 9183 ft | 239 kts | 212° |
| 2026-05-04 08:37 | -41.24207 | 175.07247 | 8958 ft | 240 kts | 212° |
| 2026-05-04 08:38 | -41.25640 | 175.06099 | 8733 ft | 240 kts | 212° |
| 2026-05-04 08:38 | -41.27072 | 175.04955 | 8521 ft | 240 kts | 212° |
| 2026-05-04 08:38 | -41.28497 | 175.03817 | 8353 ft | 238 kts | 212° |
| 2026-05-04 08:40 | -41.38017 | 174.95585 | 7250 ft | 230 kts | 214° |
| 2026-05-04 08:40 | -41.39354 | 174.94394 | 7091 ft | 230 kts | 214° |
| 2026-05-04 08:40 | -41.40696 | 174.93198 | 6864 ft | 232 kts | 214° |
| 2026-05-04 08:41 | -41.42046 | 174.92008 | 6638 ft | 231 kts | 212° |
| 2026-05-04 08:41 | -41.43477 | 174.91259 | 6406 ft | 210 kts | 194° |
| 2026-05-04 08:41 | -41.44908 | 174.90975 | 6180 ft | 209 kts | 186° |
| 2026-05-04 08:41 | -41.46317 | 174.90839 | 5829 ft | 198 kts | 187° |
| 2026-05-04 08:42 | -41.47545 | 174.90164 | 5532 ft | 193 kts | 221° |
| 2026-05-04 08:42 | -41.48404 | 174.88893 | 5312 ft | 174 kts | 235° |
| 2026-05-04 08:42 | -41.49087 | 174.87485 | 5151 ft | 182 kts | 241° |
| 2026-05-04 08:42 | -41.49593 | 174.86016 | 4875 ft | 179 kts | 252° |
| 2026-05-04 08:43 | -41.49876 | 174.84415 | 4476 ft | 178 kts | 262° |
| 2026-05-04 08:43 | -41.49750 | 174.82817 | 4052 ft | 170 kts | 295° |
| 2026-05-04 08:43 | -41.49004 | 174.81669 | 3668 ft | 165 kts | 319° |
| 2026-05-04 08:43 | -41.48087 | 174.80794 | 3219 ft | 159 kts | 328° |
| 2026-05-04 08:44 | -41.47103 | 174.80190 | 2767 ft | 150 kts | 341° |
| 2026-05-04 08:44 | -41.46122 | 174.79921 | 2526 ft | 150 kts | 353° |
| 2026-05-04 08:46 | -41.39544 | 174.80216 | 1652 ft | 113 kts | 1° |
| 2026-05-04 08:46 | -41.38787 | 174.80263 | 1390 ft | 106 kts | 3° |
| 2026-05-04 08:46 | -41.38074 | 174.80309 | 1105 ft | 101 kts | 4° |
| 2026-05-04 08:46 | -41.37383 | 174.80357 | 844 ft | 97 kts | 3° |
| 2026-05-04 08:47 | -41.36680 | 174.80411 | 777 ft | 101 kts | 5° |
| 2026-05-04 08:47 | -41.35962 | 174.80463 | 666 ft | 101 kts | 4° |
| 2026-05-04 08:47 | -41.35287 | 174.80507 | 515 ft | 93 kts | 5° |
| 2026-05-04 08:47 | -41.34633 | 174.80553 | 294 ft | 95 kts | 5° |
| 2026-05-04 08:48 | -41.33987 | 174.80600 | 153 ft | 91 kts | 6° |
| 2026-05-04 08:48 | -41.33358 | 174.80642 | 22 ft | 89 kts | 5° |
| 2026-05-04 08:48 | -41.32866 | 174.80679 | 9 ft | 37 kts | 7° |
| 2026-05-04 08:48 | -41.32685 | 174.80673 | 8 ft | 15 kts | 296° |
| 2026-05-04 08:49 | -41.32672 | 174.80566 | 8 ft | 13 kts | 326° |
| 2026-05-04 08:50 | -41.32569 | 174.80456 | 8 ft | 0 kts | 15° |